sensor_id;sensor_type;location;lat;lon;timestamp;P1;durP1;ratioP1;P2;durP2;ratioP2
76566;SDS011;65428;53.194;6.132;2023-07-29T00:00:46;18.60;;;13.13;;
76566;SDS011;65428;53.194;6.132;2023-07-29T00:03:12;20.07;;;13.90;;
76566;SDS011;65428;53.194;6.132;2023-07-29T00:05:38;20.77;;;14.50;;
76566;SDS011;65428;53.194;6.132;2023-07-29T00:08:05;20.92;;;14.77;;
76566;SDS011;65428;53.194;6.132;2023-07-29T00:10:31;20.10;;;15.17;;
76566;SDS011;65428;53.194;6.132;2023-07-29T00:12:57;18.65;;;15.13;;
76566;SDS011;65428;53.194;6.132;2023-07-29T00:15:23;20.92;;;15.65;;
76566;SDS011;65428;53.194;6.132;2023-07-29T00:17:49;21.53;;;15.83;;
76566;SDS011;65428;53.194;6.132;2023-07-29T00:20:14;22.98;;;16.55;;
76566;SDS011;65428;53.194;6.132;2023-07-29T00:22:40;20.70;;;16.17;;
76566;SDS011;65428;53.194;6.132;2023-07-29T00:25:06;24.48;;;16.17;;
76566;SDS011;65428;53.194;6.132;2023-07-29T00:27:32;19.83;;;15.88;;
76566;SDS011;65428;53.194;6.132;2023-07-29T00:29:58;22.53;;;16.00;;
76566;SDS011;65428;53.194;6.132;2023-07-29T00:32:23;19.05;;;14.93;;
76566;SDS011;65428;53.194;6.132;2023-07-29T00:34:49;22.17;;;15.90;;
76566;SDS011;65428;53.194;6.132;2023-07-29T00:37:15;20.63;;;15.43;;
76566;SDS011;65428;53.194;6.132;2023-07-29T00:39:40;22.03;;;16.73;;
76566;SDS011;65428;53.194;6.132;2023-07-29T00:42:06;20.47;;;15.53;;
76566;SDS011;65428;53.194;6.132;2023-07-29T00:44:32;21.50;;;15.63;;
76566;SDS011;65428;53.194;6.132;2023-07-29T00:46:57;20.88;;;16.08;;
76566;SDS011;65428;53.194;6.132;2023-07-29T00:49:25;19.97;;;15.43;;
76566;SDS011;65428;53.194;6.132;2023-07-29T00:51:51;20.50;;;15.80;;
76566;SDS011;65428;53.194;6.132;2023-07-29T00:54:17;22.55;;;17.02;;
76566;SDS011;65428;53.194;6.132;2023-07-29T00:56:42;21.40;;;16.47;;
76566;SDS011;65428;53.194;6.132;2023-07-29T00:59:08;24.48;;;17.55;;
76566;SDS011;65428;53.194;6.132;2023-07-29T01:01:34;20.00;;;15.90;;
76566;SDS011;65428;53.194;6.132;2023-07-29T01:04:00;22.38;;;16.58;;
76566;SDS011;65428;53.194;6.132;2023-07-29T01:06:46;21.90;;;17.23;;
76566;SDS011;65428;53.194;6.132;2023-07-29T01:09:59;23.23;;;17.55;;
76566;SDS011;65428;53.194;6.132;2023-07-29T01:12:34;23.08;;;18.55;;
76566;SDS011;65428;53.194;6.132;2023-07-29T01:17:42;23.23;;;18.42;;
76566;SDS011;65428;53.194;6.132;2023-07-29T01:20:15;23.27;;;18.17;;
76566;SDS011;65428;53.194;6.132;2023-07-29T01:22:42;23.05;;;17.95;;
76566;SDS011;65428;53.194;6.132;2023-07-29T01:25:08;22.80;;;18.48;;
76566;SDS011;65428;53.194;6.132;2023-07-29T01:27:33;24.13;;;19.50;;
76566;SDS011;65428;53.194;6.132;2023-07-29T01:29:59;22.45;;;18.70;;
76566;SDS011;65428;53.194;6.132;2023-07-29T01:32:45;25.63;;;20.77;;
76566;SDS011;65428;53.194;6.132;2023-07-29T01:35:36;23.50;;;19.40;;
76566;SDS011;65428;53.194;6.132;2023-07-29T01:38:28;24.25;;;19.92;;
76566;SDS011;65428;53.194;6.132;2023-07-29T01:41:00;25.67;;;19.42;;
76566;SDS011;65428;53.194;6.132;2023-07-29T01:43:30;24.45;;;20.10;;
76566;SDS011;65428;53.194;6.132;2023-07-29T01:45:57;25.80;;;20.58;;
76566;SDS011;65428;53.194;6.132;2023-07-29T01:48:23;25.40;;;21.00;;
76566;SDS011;65428;53.194;6.132;2023-07-29T01:50:49;25.27;;;20.20;;
76566;SDS011;65428;53.194;6.132;2023-07-29T01:53:15;24.55;;;20.13;;
76566;SDS011;65428;53.194;6.132;2023-07-29T01:55:42;24.15;;;19.23;;
76566;SDS011;65428;53.194;6.132;2023-07-29T01:58:09;22.77;;;19.52;;
76566;SDS011;65428;53.194;6.132;2023-07-29T02:00:35;23.58;;;19.83;;
76566;SDS011;65428;53.194;6.132;2023-07-29T02:03:01;23.53;;;20.30;;
76566;SDS011;65428;53.194;6.132;2023-07-29T02:05:26;26.67;;;21.50;;
76566;SDS011;65428;53.194;6.132;2023-07-29T02:07:52;26.20;;;21.77;;
76566;SDS011;65428;53.194;6.132;2023-07-29T02:10:18;23.98;;;20.20;;
76566;SDS011;65428;53.194;6.132;2023-07-29T02:12:43;26.33;;;21.00;;
76566;SDS011;65428;53.194;6.132;2023-07-29T02:15:09;24.37;;;20.30;;
76566;SDS011;65428;53.194;6.132;2023-07-29T02:17:34;24.65;;;20.83;;
76566;SDS011;65428;53.194;6.132;2023-07-29T02:20:00;24.85;;;20.10;;
76566;SDS011;65428;53.194;6.132;2023-07-29T02:22:26;24.87;;;20.63;;
76566;SDS011;65428;53.194;6.132;2023-07-29T02:24:52;22.95;;;20.00;;
76566;SDS011;65428;53.194;6.132;2023-07-29T02:27:17;23.60;;;20.50;;
76566;SDS011;65428;53.194;6.132;2023-07-29T02:29:43;21.52;;;18.73;;
76566;SDS011;65428;53.194;6.132;2023-07-29T02:32:09;24.67;;;19.20;;
76566;SDS011;65428;53.194;6.132;2023-07-29T02:34:34;23.95;;;19.95;;
76566;SDS011;65428;53.194;6.132;2023-07-29T02:37:00;22.87;;;18.33;;
76566;SDS011;65428;53.194;6.132;2023-07-29T02:39:25;21.23;;;18.00;;
76566;SDS011;65428;53.194;6.132;2023-07-29T02:41:51;25.30;;;19.50;;
76566;SDS011;65428;53.194;6.132;2023-07-29T02:44:17;20.95;;;17.10;;
76566;SDS011;65428;53.194;6.132;2023-07-29T02:46:44;23.25;;;17.70;;
76566;SDS011;65428;53.194;6.132;2023-07-29T02:49:10;21.00;;;17.20;;
76566;SDS011;65428;53.194;6.132;2023-07-29T02:51:35;23.25;;;17.80;;
76566;SDS011;65428;53.194;6.132;2023-07-29T02:54:01;19.13;;;16.03;;
76566;SDS011;65428;53.194;6.132;2023-07-29T02:56:27;21.77;;;16.63;;
76566;SDS011;65428;53.194;6.132;2023-07-29T02:58:52;18.50;;;15.38;;
76566;SDS011;65428;53.194;6.132;2023-07-29T03:01:18;20.30;;;16.43;;
76566;SDS011;65428;53.194;6.132;2023-07-29T03:03:45;23.25;;;17.02;;
76566;SDS011;65428;53.194;6.132;2023-07-29T03:06:13;20.47;;;14.83;;
76566;SDS011;65428;53.194;6.132;2023-07-29T03:08:39;22.40;;;15.27;;
76566;SDS011;65428;53.194;6.132;2023-07-29T03:11:09;21.23;;;15.93;;
76566;SDS011;65428;53.194;6.132;2023-07-29T03:13:36;23.52;;;16.40;;
76566;SDS011;65428;53.194;6.132;2023-07-29T03:18:49;17.47;;;13.83;;
76566;SDS011;65428;53.194;6.132;2023-07-29T03:21:14;17.10;;;12.57;;
76566;SDS011;65428;53.194;6.132;2023-07-29T03:23:40;19.95;;;13.90;;
76566;SDS011;65428;53.194;6.132;2023-07-29T03:26:06;24.67;;;15.48;;
76566;SDS011;65428;53.194;6.132;2023-07-29T03:28:36;21.88;;;14.88;;
76566;SDS011;65428;53.194;6.132;2023-07-29T03:31:03;29.85;;;15.35;;
76566;SDS011;65428;53.194;6.132;2023-07-29T03:33:29;16.63;;;12.73;;
76566;SDS011;65428;53.194;6.132;2023-07-29T03:35:54;15.43;;;12.23;;
76566;SDS011;65428;53.194;6.132;2023-07-29T03:38:20;12.63;;;8.60;;
76566;SDS011;65428;53.194;6.132;2023-07-29T03:40:46;20.88;;;13.05;;
76566;SDS011;65428;53.194;6.132;2023-07-29T03:43:11;16.80;;;11.67;;
76566;SDS011;65428;53.194;6.132;2023-07-29T03:45:37;20.20;;;12.57;;
76566;SDS011;65428;53.194;6.132;2023-07-29T03:48:04;14.93;;;10.55;;
76566;SDS011;65428;53.194;6.132;2023-07-29T03:50:30;17.65;;;11.77;;
76566;SDS011;65428;53.194;6.132;2023-07-29T03:52:58;14.93;;;10.57;;
76566;SDS011;65428;53.194;6.132;2023-07-29T03:55:23;16.13;;;11.07;;
76566;SDS011;65428;53.194;6.132;2023-07-29T03:57:49;16.35;;;11.68;;
76566;SDS011;65428;53.194;6.132;2023-07-29T04:00:14;17.90;;;10.90;;
76566;SDS011;65428;53.194;6.132;2023-07-29T04:02:41;16.10;;;10.43;;
76566;SDS011;65428;53.194;6.132;2023-07-29T04:05:07;16.70;;;10.95;;
76566;SDS011;65428;53.194;6.132;2023-07-29T04:07:35;13.35;;;9.45;;
76566;SDS011;65428;53.194;6.132;2023-07-29T04:10:02;14.23;;;9.27;;
76566;SDS011;65428;53.194;6.132;2023-07-29T04:12:28;12.95;;;8.98;;
76566;SDS011;65428;53.194;6.132;2023-07-29T04:14:53;16.02;;;9.77;;
76566;SDS011;65428;53.194;6.132;2023-07-29T04:17:19;13.53;;;8.93;;
76566;SDS011;65428;53.194;6.132;2023-07-29T04:19:45;11.90;;;7.80;;
76566;SDS011;65428;53.194;6.132;2023-07-29T04:22:10;14.40;;;7.60;;
76566;SDS011;65428;53.194;6.132;2023-07-29T04:24:36;11.30;;;6.63;;
76566;SDS011;65428;53.194;6.132;2023-07-29T04:27:03;11.05;;;6.40;;
76566;SDS011;65428;53.194;6.132;2023-07-29T04:29:28;13.43;;;8.15;;
76566;SDS011;65428;53.194;6.132;2023-07-29T04:31:54;10.15;;;6.40;;
76566;SDS011;65428;53.194;6.132;2023-07-29T04:34:20;13.57;;;7.00;;
76566;SDS011;65428;53.194;6.132;2023-07-29T04:36:46;10.07;;;5.50;;
76566;SDS011;65428;53.194;6.132;2023-07-29T04:39:12;11.05;;;5.82;;
76566;SDS011;65428;53.194;6.132;2023-07-29T04:41:37;10.27;;;6.80;;
76566;SDS011;65428;53.194;6.132;2023-07-29T04:44:03;10.38;;;6.22;;
76566;SDS011;65428;53.194;6.132;2023-07-29T04:46:29;10.77;;;6.13;;
76566;SDS011;65428;53.194;6.132;2023-07-29T04:48:55;11.13;;;5.70;;
76566;SDS011;65428;53.194;6.132;2023-07-29T04:51:21;10.95;;;6.13;;
76566;SDS011;65428;53.194;6.132;2023-07-29T04:53:47;8.25;;;5.78;;
76566;SDS011;65428;53.194;6.132;2023-07-29T04:56:13;9.80;;;5.78;;
76566;SDS011;65428;53.194;6.132;2023-07-29T04:58:39;9.07;;;5.72;;
76566;SDS011;65428;53.194;6.132;2023-07-29T05:01:04;8.93;;;5.50;;
76566;SDS011;65428;53.194;6.132;2023-07-29T05:03:31;10.98;;;5.60;;
76566;SDS011;65428;53.194;6.132;2023-07-29T05:05:57;10.65;;;5.43;;
76566;SDS011;65428;53.194;6.132;2023-07-29T05:08:24;10.23;;;5.60;;
76566;SDS011;65428;53.194;6.132;2023-07-29T05:10:51;8.85;;;5.40;;
76566;SDS011;65428;53.194;6.132;2023-07-29T05:13:17;10.47;;;5.60;;
76566;SDS011;65428;53.194;6.132;2023-07-29T05:15:43;9.98;;;5.53;;
76566;SDS011;65428;53.194;6.132;2023-07-29T05:18:09;10.23;;;5.85;;
76566;SDS011;65428;53.194;6.132;2023-07-29T05:20:34;9.53;;;5.73;;
76566;SDS011;65428;53.194;6.132;2023-07-29T05:23:00;10.23;;;5.15;;
76566;SDS011;65428;53.194;6.132;2023-07-29T05:25:26;9.70;;;5.50;;
76566;SDS011;65428;53.194;6.132;2023-07-29T05:27:52;11.18;;;5.47;;
76566;SDS011;65428;53.194;6.132;2023-07-29T05:30:18;11.60;;;5.43;;
76566;SDS011;65428;53.194;6.132;2023-07-29T05:32:44;12.70;;;6.07;;
76566;SDS011;65428;53.194;6.132;2023-07-29T05:35:10;10.93;;;5.57;;
76566;SDS011;65428;53.194;6.132;2023-07-29T05:37:38;11.77;;;5.95;;
76566;SDS011;65428;53.194;6.132;2023-07-29T05:40:07;9.32;;;5.40;;
76566;SDS011;65428;53.194;6.132;2023-07-29T05:42:36;11.37;;;5.97;;
76566;SDS011;65428;53.194;6.132;2023-07-29T05:45:01;10.30;;;5.68;;
76566;SDS011;65428;53.194;6.132;2023-07-29T05:47:27;10.95;;;6.03;;
76566;SDS011;65428;53.194;6.132;2023-07-29T05:49:53;9.50;;;5.70;;
76566;SDS011;65428;53.194;6.132;2023-07-29T05:52:19;8.02;;;5.13;;
76566;SDS011;65428;53.194;6.132;2023-07-29T05:54:45;11.40;;;5.67;;
76566;SDS011;65428;53.194;6.132;2023-07-29T05:57:11;10.07;;;5.38;;
76566;SDS011;65428;53.194;6.132;2023-07-29T05:59:37;9.70;;;5.70;;
76566;SDS011;65428;53.194;6.132;2023-07-29T06:02:03;9.70;;;5.40;;
76566;SDS011;65428;53.194;6.132;2023-07-29T06:04:29;9.90;;;5.20;;
76566;SDS011;65428;53.194;6.132;2023-07-29T06:06:55;7.38;;;4.63;;
76566;SDS011;65428;53.194;6.132;2023-07-29T06:09:21;8.87;;;5.33;;
76566;SDS011;65428;53.194;6.132;2023-07-29T06:11:47;10.32;;;4.75;;
76566;SDS011;65428;53.194;6.132;2023-07-29T06:14:12;10.97;;;5.20;;
76566;SDS011;65428;53.194;6.132;2023-07-29T06:16:38;9.70;;;5.05;;
76566;SDS011;65428;53.194;6.132;2023-07-29T06:19:04;10.20;;;4.60;;
76566;SDS011;65428;53.194;6.132;2023-07-29T06:21:30;10.18;;;4.20;;
76566;SDS011;65428;53.194;6.132;2023-07-29T06:23:55;11.40;;;4.72;;
76566;SDS011;65428;53.194;6.132;2023-07-29T06:26:21;11.17;;;4.60;;
76566;SDS011;65428;53.194;6.132;2023-07-29T06:28:47;10.13;;;4.13;;
76566;SDS011;65428;53.194;6.132;2023-07-29T06:31:12;10.30;;;4.30;;
76566;SDS011;65428;53.194;6.132;2023-07-29T06:33:38;12.00;;;4.82;;
76566;SDS011;65428;53.194;6.132;2023-07-29T06:36:04;12.25;;;4.43;;
76566;SDS011;65428;53.194;6.132;2023-07-29T06:38:29;7.95;;;4.20;;
76566;SDS011;65428;53.194;6.132;2023-07-29T06:40:55;9.47;;;4.17;;
76566;SDS011;65428;53.194;6.132;2023-07-29T06:43:21;11.02;;;4.30;;
76566;SDS011;65428;53.194;6.132;2023-07-29T06:45:46;9.60;;;3.93;;
76566;SDS011;65428;53.194;6.132;2023-07-29T06:48:12;9.23;;;3.38;;
76566;SDS011;65428;53.194;6.132;2023-07-29T06:50:38;9.53;;;3.60;;
76566;SDS011;65428;53.194;6.132;2023-07-29T06:53:03;9.15;;;3.60;;
76566;SDS011;65428;53.194;6.132;2023-07-29T06:55:29;10.03;;;3.47;;
76566;SDS011;65428;53.194;6.132;2023-07-29T06:57:55;8.83;;;3.30;;
76566;SDS011;65428;53.194;6.132;2023-07-29T07:00:20;9.82;;;3.40;;
76566;SDS011;65428;53.194;6.132;2023-07-29T07:02:46;7.87;;;3.13;;
76566;SDS011;65428;53.194;6.132;2023-07-29T07:05:12;8.32;;;3.33;;
76566;SDS011;65428;53.194;6.132;2023-07-29T07:07:37;11.60;;;3.43;;
76566;SDS011;65428;53.194;6.132;2023-07-29T07:10:03;9.35;;;3.10;;
76566;SDS011;65428;53.194;6.132;2023-07-29T07:12:29;7.90;;;2.57;;
76566;SDS011;65428;53.194;6.132;2023-07-29T07:14:54;9.45;;;3.22;;
76566;SDS011;65428;53.194;6.132;2023-07-29T07:17:20;8.97;;;2.83;;
76566;SDS011;65428;53.194;6.132;2023-07-29T07:19:46;9.02;;;2.85;;
76566;SDS011;65428;53.194;6.132;2023-07-29T07:22:11;10.17;;;3.10;;
76566;SDS011;65428;53.194;6.132;2023-07-29T07:24:37;8.32;;;3.13;;
76566;SDS011;65428;53.194;6.132;2023-07-29T07:27:02;7.90;;;2.53;;
76566;SDS011;65428;53.194;6.132;2023-07-29T07:29:28;8.50;;;2.45;;
76566;SDS011;65428;53.194;6.132;2023-07-29T07:31:55;7.88;;;2.15;;
76566;SDS011;65428;53.194;6.132;2023-07-29T07:34:21;9.27;;;2.58;;
76566;SDS011;65428;53.194;6.132;2023-07-29T07:36:47;8.25;;;2.47;;
76566;SDS011;65428;53.194;6.132;2023-07-29T07:39:12;6.07;;;2.33;;
76566;SDS011;65428;53.194;6.132;2023-07-29T07:41:38;8.98;;;2.25;;
76566;SDS011;65428;53.194;6.132;2023-07-29T07:44:04;8.25;;;2.33;;
76566;SDS011;65428;53.194;6.132;2023-07-29T07:46:30;9.55;;;2.08;;
76566;SDS011;65428;53.194;6.132;2023-07-29T07:48:56;5.72;;;1.73;;
76566;SDS011;65428;53.194;6.132;2023-07-29T07:51:21;6.70;;;2.20;;
76566;SDS011;65428;53.194;6.132;2023-07-29T07:53:48;6.90;;;1.90;;
76566;SDS011;65428;53.194;6.132;2023-07-29T07:56:14;6.88;;;2.03;;
76566;SDS011;65428;53.194;6.132;2023-07-29T07:58:40;6.50;;;1.80;;
76566;SDS011;65428;53.194;6.132;2023-07-29T08:01:06;5.15;;;1.73;;
76566;SDS011;65428;53.194;6.132;2023-07-29T08:03:33;5.45;;;1.80;;
76566;SDS011;65428;53.194;6.132;2023-07-29T08:06:00;7.68;;;1.95;;
76566;SDS011;65428;53.194;6.132;2023-07-29T08:08:26;5.72;;;1.90;;
76566;SDS011;65428;53.194;6.132;2023-07-29T08:10:52;6.45;;;1.92;;
76566;SDS011;65428;53.194;6.132;2023-07-29T08:13:19;5.80;;;1.70;;
76566;SDS011;65428;53.194;6.132;2023-07-29T08:15:49;4.45;;;1.77;;
76566;SDS011;65428;53.194;6.132;2023-07-29T08:18:16;5.65;;;1.60;;
76566;SDS011;65428;53.194;6.132;2023-07-29T08:20:51;6.00;;;1.55;;
76566;SDS011;65428;53.194;6.132;2023-07-29T08:23:23;6.55;;;1.60;;
76566;SDS011;65428;53.194;6.132;2023-07-29T08:25:58;6.10;;;1.30;;
76566;SDS011;65428;53.194;6.132;2023-07-29T08:28:34;5.25;;;1.45;;
76566;SDS011;65428;53.194;6.132;2023-07-29T08:31:02;3.83;;;1.40;;
76566;SDS011;65428;53.194;6.132;2023-07-29T08:33:28;4.82;;;1.30;;
76566;SDS011;65428;53.194;6.132;2023-07-29T08:35:54;5.25;;;1.27;;
76566;SDS011;65428;53.194;6.132;2023-07-29T08:38:20;5.63;;;1.50;;
76566;SDS011;65428;53.194;6.132;2023-07-29T08:40:52;4.60;;;1.42;;
76566;SDS011;65428;53.194;6.132;2023-07-29T08:43:32;6.67;;;1.70;;
76566;SDS011;65428;53.194;6.132;2023-07-29T08:45:58;3.97;;;1.08;;
76566;SDS011;65428;53.194;6.132;2023-07-29T08:48:36;5.55;;;1.30;;
76566;SDS011;65428;53.194;6.132;2023-07-29T08:51:06;4.03;;;1.10;;
76566;SDS011;65428;53.194;6.132;2023-07-29T08:53:34;4.20;;;1.00;;
76566;SDS011;65428;53.194;6.132;2023-07-29T08:56:01;5.50;;;1.10;;
76566;SDS011;65428;53.194;6.132;2023-07-29T08:58:26;5.65;;;1.23;;
76566;SDS011;65428;53.194;6.132;2023-07-29T09:00:52;5.20;;;0.90;;
76566;SDS011;65428;53.194;6.132;2023-07-29T09:03:19;4.07;;;0.83;;
76566;SDS011;65428;53.194;6.132;2023-07-29T09:05:45;3.80;;;0.82;;
76566;SDS011;65428;53.194;6.132;2023-07-29T09:08:11;4.93;;;0.77;;
76566;SDS011;65428;53.194;6.132;2023-07-29T09:10:37;3.72;;;0.93;;
76566;SDS011;65428;53.194;6.132;2023-07-29T09:13:03;3.60;;;0.90;;
76566;SDS011;65428;53.194;6.132;2023-07-29T09:15:31;5.33;;;0.90;;
76566;SDS011;65428;53.194;6.132;2023-07-29T09:17:58;4.32;;;0.70;;
76566;SDS011;65428;53.194;6.132;2023-07-29T09:20:27;3.45;;;0.73;;
76566;SDS011;65428;53.194;6.132;2023-07-29T09:22:54;4.70;;;0.70;;
76566;SDS011;65428;53.194;6.132;2023-07-29T09:25:26;4.50;;;0.82;;
76566;SDS011;65428;53.194;6.132;2023-07-29T09:27:52;3.55;;;0.60;;
76566;SDS011;65428;53.194;6.132;2023-07-29T09:30:25;4.03;;;0.63;;
76566;SDS011;65428;53.194;6.132;2023-07-29T09:32:58;3.63;;;0.67;;
76566;SDS011;65428;53.194;6.132;2023-07-29T09:35:24;2.90;;;0.70;;
76566;SDS011;65428;53.194;6.132;2023-07-29T09:37:52;4.07;;;0.80;;
76566;SDS011;65428;53.194;6.132;2023-07-29T09:40:18;2.70;;;0.50;;
76566;SDS011;65428;53.194;6.132;2023-07-29T09:42:51;3.10;;;0.57;;
76566;SDS011;65428;53.194;6.132;2023-07-29T09:45:24;3.20;;;0.57;;
76566;SDS011;65428;53.194;6.132;2023-07-29T09:47:52;3.72;;;0.80;;
76566;SDS011;65428;53.194;6.132;2023-07-29T09:50:18;2.97;;;0.68;;
76566;SDS011;65428;53.194;6.132;2023-07-29T09:52:48;4.97;;;0.80;;
76566;SDS011;65428;53.194;6.132;2023-07-29T09:55:17;4.38;;;0.50;;
76566;SDS011;65428;53.194;6.132;2023-07-29T09:57:58;2.53;;;0.40;;
76566;SDS011;65428;53.194;6.132;2023-07-29T10:00:30;3.63;;;0.60;;
76566;SDS011;65428;53.194;6.132;2023-07-29T10:02:57;4.13;;;0.50;;
76566;SDS011;65428;53.194;6.132;2023-07-29T10:05:27;4.03;;;0.70;;
76566;SDS011;65428;53.194;6.132;2023-07-29T10:07:53;3.67;;;0.65;;
76566;SDS011;65428;53.194;6.132;2023-07-29T10:10:20;3.40;;;0.70;;
76566;SDS011;65428;53.194;6.132;2023-07-29T10:12:46;4.22;;;0.63;;
76566;SDS011;65428;53.194;6.132;2023-07-29T10:15:12;3.50;;;1.00;;
76566;SDS011;65428;53.194;6.132;2023-07-29T10:17:39;7.05;;;0.85;;
76566;SDS011;65428;53.194;6.132;2023-07-29T10:20:06;4.40;;;0.90;;
76566;SDS011;65428;53.194;6.132;2023-07-29T10:22:36;4.20;;;1.08;;
76566;SDS011;65428;53.194;6.132;2023-07-29T10:25:03;6.32;;;1.20;;
76566;SDS011;65428;53.194;6.132;2023-07-29T10:27:42;6.13;;;1.35;;
76566;SDS011;65428;53.194;6.132;2023-07-29T10:30:46;5.22;;;1.00;;
76566;SDS011;65428;53.194;6.132;2023-07-29T10:33:12;4.05;;;0.90;;
76566;SDS011;65428;53.194;6.132;2023-07-29T10:35:39;4.18;;;1.10;;
76566;SDS011;65428;53.194;6.132;2023-07-29T10:38:05;5.43;;;1.10;;
76566;SDS011;65428;53.194;6.132;2023-07-29T10:40:45;4.38;;;1.17;;
76566;SDS011;65428;53.194;6.132;2023-07-29T10:46:18;4.90;;;1.05;;
76566;SDS011;65428;53.194;6.132;2023-07-29T10:48:54;5.57;;;1.30;;
76566;SDS011;65428;53.194;6.132;2023-07-29T10:51:34;4.82;;;1.40;;
76566;SDS011;65428;53.194;6.132;2023-07-29T10:54:02;5.40;;;1.38;;
76566;SDS011;65428;53.194;6.132;2023-07-29T10:56:29;3.10;;;1.10;;
76566;SDS011;65428;53.194;6.132;2023-07-29T10:58:55;6.00;;;1.20;;
76566;SDS011;65428;53.194;6.132;2023-07-29T11:01:26;4.07;;;1.10;;
76566;SDS011;65428;53.194;6.132;2023-07-29T11:04:45;3.47;;;1.00;;
76566;SDS011;65428;53.194;6.132;2023-07-29T11:14:59;3.58;;;0.90;;
76566;SDS011;65428;53.194;6.132;2023-07-29T11:17:43;3.47;;;0.80;;
76566;SDS011;65428;53.194;6.132;2023-07-29T11:20:10;3.50;;;0.60;;
76566;SDS011;65428;53.194;6.132;2023-07-29T11:22:40;4.35;;;0.88;;
76566;SDS011;65428;53.194;6.132;2023-07-29T11:25:13;4.72;;;0.90;;
76566;SDS011;65428;53.194;6.132;2023-07-29T11:27:40;3.95;;;0.80;;
76566;SDS011;65428;53.194;6.132;2023-07-29T11:30:07;2.63;;;0.80;;
76566;SDS011;65428;53.194;6.132;2023-07-29T11:32:34;4.45;;;0.80;;
76566;SDS011;65428;53.194;6.132;2023-07-29T11:35:11;4.38;;;0.70;;
76566;SDS011;65428;53.194;6.132;2023-07-29T11:37:39;4.55;;;0.90;;
76566;SDS011;65428;53.194;6.132;2023-07-29T11:40:07;3.13;;;1.02;;
76566;SDS011;65428;53.194;6.132;2023-07-29T11:42:37;3.00;;;0.70;;
76566;SDS011;65428;53.194;6.132;2023-07-29T11:45:03;3.25;;;0.90;;
76566;SDS011;65428;53.194;6.132;2023-07-29T11:47:31;4.43;;;1.20;;
76566;SDS011;65428;53.194;6.132;2023-07-29T11:50:01;3.53;;;1.60;;
76566;SDS011;65428;53.194;6.132;2023-07-29T11:52:27;5.15;;;2.10;;
76566;SDS011;65428;53.194;6.132;2023-07-29T11:54:54;3.77;;;1.90;;
76566;SDS011;65428;53.194;6.132;2023-07-29T11:57:20;5.22;;;1.73;;
76566;SDS011;65428;53.194;6.132;2023-07-29T11:59:46;4.13;;;2.10;;
76566;SDS011;65428;53.194;6.132;2023-07-29T12:02:16;4.47;;;1.95;;
76566;SDS011;65428;53.194;6.132;2023-07-29T12:04:44;3.80;;;1.95;;
76566;SDS011;65428;53.194;6.132;2023-07-29T12:07:13;3.72;;;2.00;;
76566;SDS011;65428;53.194;6.132;2023-07-29T12:09:40;4.70;;;1.90;;
76566;SDS011;65428;53.194;6.132;2023-07-29T12:12:07;4.25;;;1.80;;
76566;SDS011;65428;53.194;6.132;2023-07-29T12:14:33;4.18;;;1.52;;
76566;SDS011;65428;53.194;6.132;2023-07-29T12:17:00;4.28;;;1.30;;
76566;SDS011;65428;53.194;6.132;2023-07-29T12:19:36;4.07;;;1.30;;
76566;SDS011;65428;53.194;6.132;2023-07-29T12:22:03;3.45;;;1.40;;
76566;SDS011;65428;53.194;6.132;2023-07-29T12:24:30;4.68;;;1.40;;
76566;SDS011;65428;53.194;6.132;2023-07-29T12:26:57;3.85;;;1.20;;
76566;SDS011;65428;53.194;6.132;2023-07-29T12:29:23;4.57;;;1.40;;
76566;SDS011;65428;53.194;6.132;2023-07-29T12:31:56;3.92;;;1.10;;
76566;SDS011;65428;53.194;6.132;2023-07-29T12:34:24;3.50;;;1.20;;
76566;SDS011;65428;53.194;6.132;2023-07-29T12:36:52;4.00;;;1.42;;
76566;SDS011;65428;53.194;6.132;2023-07-29T12:39:21;3.75;;;0.70;;
76566;SDS011;65428;53.194;6.132;2023-07-29T12:41:55;4.45;;;0.77;;
76566;SDS011;65428;53.194;6.132;2023-07-29T12:44:23;5.05;;;0.98;;
76566;SDS011;65428;53.194;6.132;2023-07-29T12:46:50;4.22;;;1.08;;
76566;SDS011;65428;53.194;6.132;2023-07-29T12:49:16;4.25;;;0.80;;
76566;SDS011;65428;53.194;6.132;2023-07-29T12:51:42;4.00;;;0.80;;
76566;SDS011;65428;53.194;6.132;2023-07-29T12:54:08;3.75;;;1.00;;
76566;SDS011;65428;53.194;6.132;2023-07-29T12:56:34;4.57;;;1.20;;
76566;SDS011;65428;53.194;6.132;2023-07-29T12:59:00;4.15;;;1.20;;
76566;SDS011;65428;53.194;6.132;2023-07-29T13:01:27;4.60;;;1.35;;
76566;SDS011;65428;53.194;6.132;2023-07-29T13:03:53;4.80;;;1.83;;
76566;SDS011;65428;53.194;6.132;2023-07-29T13:06:19;4.78;;;1.45;;
76566;SDS011;65428;53.194;6.132;2023-07-29T13:08:45;4.78;;;1.27;;
76566;SDS011;65428;53.194;6.132;2023-07-29T13:11:11;5.47;;;1.48;;
76566;SDS011;65428;53.194;6.132;2023-07-29T13:13:37;4.75;;;1.30;;
76566;SDS011;65428;53.194;6.132;2023-07-29T13:16:03;2.80;;;0.80;;
76566;SDS011;65428;53.194;6.132;2023-07-29T13:18:29;4.50;;;1.00;;
76566;SDS011;65428;53.194;6.132;2023-07-29T13:20:54;3.85;;;0.80;;
76566;SDS011;65428;53.194;6.132;2023-07-29T13:23:20;3.33;;;0.77;;
76566;SDS011;65428;53.194;6.132;2023-07-29T13:25:46;3.65;;;0.90;;
76566;SDS011;65428;53.194;6.132;2023-07-29T13:28:12;4.07;;;0.90;;
76566;SDS011;65428;53.194;6.132;2023-07-29T13:30:38;5.47;;;1.00;;
76566;SDS011;65428;53.194;6.132;2023-07-29T13:33:06;3.92;;;1.27;;
76566;SDS011;65428;53.194;6.132;2023-07-29T13:35:32;4.88;;;1.20;;
76566;SDS011;65428;53.194;6.132;2023-07-29T13:37:58;5.03;;;1.02;;
76566;SDS011;65428;53.194;6.132;2023-07-29T13:40:24;3.47;;;0.80;;
76566;SDS011;65428;53.194;6.132;2023-07-29T13:42:50;4.43;;;1.10;;
76566;SDS011;65428;53.194;6.132;2023-07-29T13:45:16;3.83;;;1.00;;
76566;SDS011;65428;53.194;6.132;2023-07-29T13:47:42;3.00;;;1.00;;
76566;SDS011;65428;53.194;6.132;2023-07-29T13:50:08;3.97;;;0.95;;
76566;SDS011;65428;53.194;6.132;2023-07-29T13:52:35;6.82;;;1.65;;
76566;SDS011;65428;53.194;6.132;2023-07-29T13:55:01;3.15;;;1.00;;
76566;SDS011;65428;53.194;6.132;2023-07-29T13:57:28;5.18;;;1.10;;
76566;SDS011;65428;53.194;6.132;2023-07-29T13:59:53;5.17;;;1.07;;
76566;SDS011;65428;53.194;6.132;2023-07-29T14:02:19;3.92;;;1.05;;
76566;SDS011;65428;53.194;6.132;2023-07-29T14:04:45;3.50;;;0.80;;
76566;SDS011;65428;53.194;6.132;2023-07-29T14:07:10;3.23;;;0.87;;
76566;SDS011;65428;53.194;6.132;2023-07-29T14:09:36;3.50;;;0.60;;
76566;SDS011;65428;53.194;6.132;2023-07-29T14:12:03;3.03;;;0.60;;
76566;SDS011;65428;53.194;6.132;2023-07-29T14:14:29;2.95;;;0.70;;
76566;SDS011;65428;53.194;6.132;2023-07-29T14:16:56;4.10;;;0.70;;
76566;SDS011;65428;53.194;6.132;2023-07-29T14:19:22;4.10;;;0.90;;
76566;SDS011;65428;53.194;6.132;2023-07-29T14:21:48;4.47;;;0.90;;
76566;SDS011;65428;53.194;6.132;2023-07-29T14:24:14;4.03;;;0.90;;
76566;SDS011;65428;53.194;6.132;2023-07-29T14:26:40;5.00;;;1.00;;
76566;SDS011;65428;53.194;6.132;2023-07-29T14:29:06;3.28;;;0.75;;
76566;SDS011;65428;53.194;6.132;2023-07-29T14:31:32;3.88;;;1.10;;
76566;SDS011;65428;53.194;6.132;2023-07-29T14:33:57;3.83;;;1.23;;
76566;SDS011;65428;53.194;6.132;2023-07-29T14:36:24;4.40;;;1.10;;
76566;SDS011;65428;53.194;6.132;2023-07-29T14:38:50;4.82;;;1.20;;
76566;SDS011;65428;53.194;6.132;2023-07-29T14:41:15;4.00;;;1.20;;
76566;SDS011;65428;53.194;6.132;2023-07-29T14:43:41;4.70;;;1.50;;
76566;SDS011;65428;53.194;6.132;2023-07-29T14:46:06;3.97;;;1.45;;
76566;SDS011;65428;53.194;6.132;2023-07-29T14:48:32;3.73;;;0.70;;
76566;SDS011;65428;53.194;6.132;2023-07-29T14:50:58;4.93;;;0.70;;
76566;SDS011;65428;53.194;6.132;2023-07-29T14:53:23;4.13;;;1.05;;
76566;SDS011;65428;53.194;6.132;2023-07-29T14:55:50;3.40;;;1.00;;